Bandon, Indiana
Current Conditions -  °F | °C
As of 5:35 PM on Saturday 22 Nov 2014 (Local Time) from KHNB Reporting Station
Clear Clear  
Wind Chill: 13°   Ceiling: Unl
Heat Index: 13°   Visibility: 10mi
Dew Point:   Wind: 10mph
Humidity: 51%   Direction: 160°SSE
Pressure: 30.05"   Gusts: NA
Location:  38.1703°N, 86.5482°W
Report Text: KHNB 222335Z AUTO 16009KT 10SM CLR 13/03 A3005 RMK AO1
Loading
Personal Weather Stations






























Interactive Weather Map New forecast layout! Learn more

10-Day Weather Forecast

Advertisements
Track Severe Weather on mobile